sensor_id;sensor_type;location;lat;lon;timestamp;P1;durP1;ratioP1;P2;durP2;ratioP2
69748;SDS011;57019;52.354;6.584;2022-08-19T00:01:50;7.57;;;3.17;;
69748;SDS011;57019;52.354;6.584;2022-08-19T00:04:18;6.90;;;3.00;;
69748;SDS011;57019;52.354;6.584;2022-08-19T00:06:46;7.55;;;3.15;;
69748;SDS011;57019;52.354;6.584;2022-08-19T00:09:14;6.80;;;3.03;;
69748;SDS011;57019;52.354;6.584;2022-08-19T00:11:41;7.38;;;3.10;;
69748;SDS011;57019;52.354;6.584;2022-08-19T00:14:07;7.40;;;3.33;;
69748;SDS011;57019;52.354;6.584;2022-08-19T00:16:35;6.87;;;3.20;;
69748;SDS011;57019;52.354;6.584;2022-08-19T00:19:01;7.35;;;3.28;;
69748;SDS011;57019;52.354;6.584;2022-08-19T00:21:27;7.10;;;3.50;;
69748;SDS011;57019;52.354;6.584;2022-08-19T00:23:53;8.87;;;3.50;;
69748;SDS011;57019;52.354;6.584;2022-08-19T00:26:23;7.43;;;3.30;;
69748;SDS011;57019;52.354;6.584;2022-08-19T00:28:49;8.13;;;3.67;;
69748;SDS011;57019;52.354;6.584;2022-08-19T00:31:14;8.40;;;3.70;;
69748;SDS011;57019;52.354;6.584;2022-08-19T00:33:41;8.00;;;3.63;;
69748;SDS011;57019;52.354;6.584;2022-08-19T00:36:07;8.07;;;3.53;;
69748;SDS011;57019;52.354;6.584;2022-08-19T00:38:35;9.43;;;3.40;;
69748;SDS011;57019;52.354;6.584;2022-08-19T00:41:03;7.25;;;3.25;;
69748;SDS011;57019;52.354;6.584;2022-08-19T00:43:30;10.07;;;3.53;;
69748;SDS011;57019;52.354;6.584;2022-08-19T00:45:55;7.32;;;3.08;;
69748;SDS011;57019;52.354;6.584;2022-08-19T00:48:21;8.13;;;3.17;;
69748;SDS011;57019;52.354;6.584;2022-08-19T00:50:49;8.47;;;3.23;;
69748;SDS011;57019;52.354;6.584;2022-08-19T00:53:18;6.80;;;2.90;;
69748;SDS011;57019;52.354;6.584;2022-08-19T00:55:47;7.47;;;3.10;;
69748;SDS011;57019;52.354;6.584;2022-08-19T00:58:15;6.72;;;2.97;;
69748;SDS011;57019;52.354;6.584;2022-08-19T01:00:45;7.95;;;2.83;;
69748;SDS011;57019;52.354;6.584;2022-08-19T01:03:13;7.73;;;3.30;;
69748;SDS011;57019;52.354;6.584;2022-08-19T01:05:41;8.30;;;3.25;;
69748;SDS011;57019;52.354;6.584;2022-08-19T01:08:08;6.75;;;3.00;;
69748;SDS011;57019;52.354;6.584;2022-08-19T01:10:40;6.70;;;2.95;;
69748;SDS011;57019;52.354;6.584;2022-08-19T01:13:09;7.50;;;3.20;;
69748;SDS011;57019;52.354;6.584;2022-08-19T01:15:39;8.40;;;3.40;;
69748;SDS011;57019;52.354;6.584;2022-08-19T01:18:11;7.38;;;3.05;;
69748;SDS011;57019;52.354;6.584;2022-08-19T01:20:40;7.35;;;3.03;;
69748;SDS011;57019;52.354;6.584;2022-08-19T01:23:06;6.72;;;3.00;;
69748;SDS011;57019;52.354;6.584;2022-08-19T01:25:51;9.27;;;3.73;;
69748;SDS011;57019;52.354;6.584;2022-08-19T01:28:20;7.80;;;3.38;;
69748;SDS011;57019;52.354;6.584;2022-08-19T01:30:51;7.80;;;3.25;;
69748;SDS011;57019;52.354;6.584;2022-08-19T01:33:17;8.98;;;3.40;;
69748;SDS011;57019;52.354;6.584;2022-08-19T01:35:44;6.37;;;2.73;;
69748;SDS011;57019;52.354;6.584;2022-08-19T01:38:17;6.90;;;2.97;;
69748;SDS011;57019;52.354;6.584;2022-08-19T01:40:48;7.55;;;3.25;;
69748;SDS011;57019;52.354;6.584;2022-08-19T01:43:14;6.93;;;2.93;;
69748;SDS011;57019;52.354;6.584;2022-08-19T01:45:40;6.85;;;2.90;;
69748;SDS011;57019;52.354;6.584;2022-08-19T01:48:06;7.32;;;2.90;;
69748;SDS011;57019;52.354;6.584;2022-08-19T01:50:32;7.10;;;3.00;;
69748;SDS011;57019;52.354;6.584;2022-08-19T01:52:59;7.22;;;3.10;;
69748;SDS011;57019;52.354;6.584;2022-08-19T01:55:25;9.13;;;3.10;;
69748;SDS011;57019;52.354;6.584;2022-08-19T01:57:53;6.77;;;2.90;;
69748;SDS011;57019;52.354;6.584;2022-08-19T02:00:23;7.57;;;3.22;;
69748;SDS011;57019;52.354;6.584;2022-08-19T02:02:51;8.18;;;3.40;;
69748;SDS011;57019;52.354;6.584;2022-08-19T02:05:16;7.93;;;3.27;;
69748;SDS011;57019;52.354;6.584;2022-08-19T02:07:43;8.07;;;3.35;;
69748;SDS011;57019;52.354;6.584;2022-08-19T02:10:11;7.25;;;3.15;;
69748;SDS011;57019;52.354;6.584;2022-08-19T02:12:38;7.75;;;3.22;;
69748;SDS011;57019;52.354;6.584;2022-08-19T02:15:04;7.90;;;3.30;;
69748;SDS011;57019;52.354;6.584;2022-08-19T02:17:31;7.85;;;3.60;;
69748;SDS011;57019;52.354;6.584;2022-08-19T02:19:56;8.83;;;3.60;;
69748;SDS011;57019;52.354;6.584;2022-08-19T02:22:22;8.93;;;3.50;;
69748;SDS011;57019;52.354;6.584;2022-08-19T02:24:49;10.07;;;4.00;;
69748;SDS011;57019;52.354;6.584;2022-08-19T02:27:15;9.03;;;4.03;;
69748;SDS011;57019;52.354;6.584;2022-08-19T02:29:41;9.90;;;3.80;;
69748;SDS011;57019;52.354;6.584;2022-08-19T02:32:06;8.90;;;3.67;;
69748;SDS011;57019;52.354;6.584;2022-08-19T02:34:32;10.43;;;3.70;;
69748;SDS011;57019;52.354;6.584;2022-08-19T02:36:58;9.00;;;3.83;;
69748;SDS011;57019;52.354;6.584;2022-08-19T02:39:23;8.05;;;3.50;;
69748;SDS011;57019;52.354;6.584;2022-08-19T02:41:49;8.00;;;3.50;;
69748;SDS011;57019;52.354;6.584;2022-08-19T02:44:15;7.45;;;3.70;;
69748;SDS011;57019;52.354;6.584;2022-08-19T02:46:41;7.80;;;3.70;;
69748;SDS011;57019;52.354;6.584;2022-08-19T02:49:08;7.53;;;3.42;;
69748;SDS011;57019;52.354;6.584;2022-08-19T02:51:37;7.83;;;3.53;;
69748;SDS011;57019;52.354;6.584;2022-08-19T02:54:06;7.93;;;3.65;;
69748;SDS011;57019;52.354;6.584;2022-08-19T02:56:34;8.35;;;3.70;;
69748;SDS011;57019;52.354;6.584;2022-08-19T02:59:01;9.18;;;4.10;;
69748;SDS011;57019;52.354;6.584;2022-08-19T03:01:29;8.37;;;3.97;;
69748;SDS011;57019;52.354;6.584;2022-08-19T03:03:57;8.27;;;3.67;;
69748;SDS011;57019;52.354;6.584;2022-08-19T03:06:25;7.75;;;3.85;;
69748;SDS011;57019;52.354;6.584;2022-08-19T03:08:52;8.30;;;3.70;;
69748;SDS011;57019;52.354;6.584;2022-08-19T03:11:20;8.33;;;3.90;;
69748;SDS011;57019;52.354;6.584;2022-08-19T03:13:50;7.93;;;3.72;;
69748;SDS011;57019;52.354;6.584;2022-08-19T03:16:17;7.55;;;3.42;;
69748;SDS011;57019;52.354;6.584;2022-08-19T03:18:44;7.90;;;3.70;;
69748;SDS011;57019;52.354;6.584;2022-08-19T03:21:09;7.40;;;3.60;;
69748;SDS011;57019;52.354;6.584;2022-08-19T03:23:41;8.33;;;3.53;;
69748;SDS011;57019;52.354;6.584;2022-08-19T03:26:06;9.10;;;3.60;;
69748;SDS011;57019;52.354;6.584;2022-08-19T03:28:32;8.17;;;3.70;;
69748;SDS011;57019;52.354;6.584;2022-08-19T03:31:00;7.67;;;3.57;;
69748;SDS011;57019;52.354;6.584;2022-08-19T03:33:29;8.88;;;4.00;;
69748;SDS011;57019;52.354;6.584;2022-08-19T03:36:15;8.45;;;3.92;;
69748;SDS011;57019;52.354;6.584;2022-08-19T03:38:47;8.52;;;3.80;;
69748;SDS011;57019;52.354;6.584;2022-08-19T03:41:17;9.05;;;3.75;;
69748;SDS011;57019;52.354;6.584;2022-08-19T03:43:45;8.17;;;3.57;;
69748;SDS011;57019;52.354;6.584;2022-08-19T03:46:19;9.38;;;3.60;;
69748;SDS011;57019;52.354;6.584;2022-08-19T03:48:50;7.80;;;3.65;;
69748;SDS011;57019;52.354;6.584;2022-08-19T03:51:27;8.85;;;3.65;;
69748;SDS011;57019;52.354;6.584;2022-08-19T03:53:56;7.68;;;3.70;;
69748;SDS011;57019;52.354;6.584;2022-08-19T03:56:23;9.53;;;3.93;;
69748;SDS011;57019;52.354;6.584;2022-08-19T03:58:50;8.32;;;4.10;;
69748;SDS011;57019;52.354;6.584;2022-08-19T04:01:18;8.00;;;3.92;;
69748;SDS011;57019;52.354;6.584;2022-08-19T04:03:44;9.02;;;3.80;;
69748;SDS011;57019;52.354;6.584;2022-08-19T04:06:21;8.93;;;3.83;;
69748;SDS011;57019;52.354;6.584;2022-08-19T04:08:52;7.37;;;3.57;;
69748;SDS011;57019;52.354;6.584;2022-08-19T04:11:21;8.95;;;4.25;;
69748;SDS011;57019;52.354;6.584;2022-08-19T04:13:49;10.10;;;4.00;;
69748;SDS011;57019;52.354;6.584;2022-08-19T04:16:16;8.52;;;3.88;;
69748;SDS011;57019;52.354;6.584;2022-08-19T04:18:46;9.95;;;4.38;;
69748;SDS011;57019;52.354;6.584;2022-08-19T04:21:16;8.17;;;4.00;;
69748;SDS011;57019;52.354;6.584;2022-08-19T04:23:44;9.20;;;4.10;;
69748;SDS011;57019;52.354;6.584;2022-08-19T04:26:20;9.45;;;4.30;;
69748;SDS011;57019;52.354;6.584;2022-08-19T04:28:48;9.52;;;4.10;;
69748;SDS011;57019;52.354;6.584;2022-08-19T04:31:18;8.53;;;3.97;;
69748;SDS011;57019;52.354;6.584;2022-08-19T04:33:46;8.95;;;4.03;;
69748;SDS011;57019;52.354;6.584;2022-08-19T04:36:19;8.70;;;4.10;;
69748;SDS011;57019;52.354;6.584;2022-08-19T04:38:47;8.13;;;4.20;;
69748;SDS011;57019;52.354;6.584;2022-08-19T04:41:13;9.98;;;4.10;;
69748;SDS011;57019;52.354;6.584;2022-08-19T04:43:57;8.95;;;4.40;;
69748;SDS011;57019;52.354;6.584;2022-08-19T04:46:22;8.73;;;3.93;;
69748;SDS011;57019;52.354;6.584;2022-08-19T04:48:48;9.50;;;3.90;;
69748;SDS011;57019;52.354;6.584;2022-08-19T04:51:13;8.05;;;4.03;;
69748;SDS011;57019;52.354;6.584;2022-08-19T04:53:40;9.20;;;4.00;;
69748;SDS011;57019;52.354;6.584;2022-08-19T04:56:08;7.32;;;3.58;;
69748;SDS011;57019;52.354;6.584;2022-08-19T04:58:35;8.40;;;4.00;;
69748;SDS011;57019;52.354;6.584;2022-08-19T05:01:03;9.45;;;3.88;;
69748;SDS011;57019;52.354;6.584;2022-08-19T05:03:28;8.48;;;3.83;;
69748;SDS011;57019;52.354;6.584;2022-08-19T05:05:59;8.40;;;4.00;;
69748;SDS011;57019;52.354;6.584;2022-08-19T05:08:30;9.60;;;3.90;;
69748;SDS011;57019;52.354;6.584;2022-08-19T05:10:55;12.47;;;4.50;;
69748;SDS011;57019;52.354;6.584;2022-08-19T05:13:22;11.02;;;4.40;;
69748;SDS011;57019;52.354;6.584;2022-08-19T05:15:55;9.85;;;4.15;;
69748;SDS011;57019;52.354;6.584;2022-08-19T05:18:22;10.45;;;4.53;;
69748;SDS011;57019;52.354;6.584;2022-08-19T05:21:17;10.85;;;4.70;;
69748;SDS011;57019;52.354;6.584;2022-08-19T05:24:02;9.90;;;4.27;;
69748;SDS011;57019;52.354;6.584;2022-08-19T05:26:28;10.38;;;4.72;;
69748;SDS011;57019;52.354;6.584;2022-08-19T05:28:53;8.87;;;4.40;;
69748;SDS011;57019;52.354;6.584;2022-08-19T05:31:20;9.13;;;4.40;;
69748;SDS011;57019;52.354;6.584;2022-08-19T05:33:45;11.02;;;4.80;;
69748;SDS011;57019;52.354;6.584;2022-08-19T05:36:11;11.50;;;4.80;;
69748;SDS011;57019;52.354;6.584;2022-08-19T05:38:36;10.23;;;4.83;;
69748;SDS011;57019;52.354;6.584;2022-08-19T05:41:08;9.38;;;4.63;;
69748;SDS011;57019;52.354;6.584;2022-08-19T05:43:35;9.40;;;4.50;;
69748;SDS011;57019;52.354;6.584;2022-08-19T05:46:01;11.50;;;4.60;;
69748;SDS011;57019;52.354;6.584;2022-08-19T05:48:26;8.43;;;4.33;;
69748;SDS011;57019;52.354;6.584;2022-08-19T05:50:52;10.43;;;4.35;;
69748;SDS011;57019;52.354;6.584;2022-08-19T05:53:17;9.07;;;4.20;;
69748;SDS011;57019;52.354;6.584;2022-08-19T05:55:43;10.45;;;4.60;;
69748;SDS011;57019;52.354;6.584;2022-08-19T05:58:08;10.97;;;4.90;;
69748;SDS011;57019;52.354;6.584;2022-08-19T06:00:35;9.80;;;4.90;;
69748;SDS011;57019;52.354;6.584;2022-08-19T06:03:01;11.90;;;5.80;;
69748;SDS011;57019;52.354;6.584;2022-08-19T06:05:28;12.13;;;4.97;;
69748;SDS011;57019;52.354;6.584;2022-08-19T06:07:55;10.85;;;5.50;;
69748;SDS011;57019;52.354;6.584;2022-08-19T06:10:21;11.77;;;5.60;;
69748;SDS011;57019;52.354;6.584;2022-08-19T06:12:46;10.63;;;5.57;;
69748;SDS011;57019;52.354;6.584;2022-08-19T06:15:12;11.73;;;5.63;;
69748;SDS011;57019;52.354;6.584;2022-08-19T06:17:39;12.77;;;6.00;;
69748;SDS011;57019;52.354;6.584;2022-08-19T06:20:07;11.30;;;5.43;;
69748;SDS011;57019;52.354;6.584;2022-08-19T06:22:49;12.20;;;5.45;;
69748;SDS011;57019;52.354;6.584;2022-08-19T06:25:16;14.25;;;5.72;;
69748;SDS011;57019;52.354;6.584;2022-08-19T06:27:42;10.23;;;5.60;;
69748;SDS011;57019;52.354;6.584;2022-08-19T06:30:07;13.25;;;5.35;;
69748;SDS011;57019;52.354;6.584;2022-08-19T06:32:33;12.95;;;5.30;;
69748;SDS011;57019;52.354;6.584;2022-08-19T06:34:58;10.80;;;5.00;;
69748;SDS011;57019;52.354;6.584;2022-08-19T06:37:24;10.53;;;4.77;;
69748;SDS011;57019;52.354;6.584;2022-08-19T06:39:49;11.30;;;4.50;;
69748;SDS011;57019;52.354;6.584;2022-08-19T06:42:15;10.90;;;5.32;;
69748;SDS011;57019;52.354;6.584;2022-08-19T06:44:44;12.53;;;4.90;;
69748;SDS011;57019;52.354;6.584;2022-08-19T06:47:14;12.70;;;6.32;;
69748;SDS011;57019;52.354;6.584;2022-08-19T06:49:42;13.15;;;6.93;;
69748;SDS011;57019;52.354;6.584;2022-08-19T06:52:07;12.25;;;6.60;;
69748;SDS011;57019;52.354;6.584;2022-08-19T06:54:35;13.10;;;6.57;;
69748;SDS011;57019;52.354;6.584;2022-08-19T06:57:01;14.05;;;7.30;;
69748;SDS011;57019;52.354;6.584;2022-08-19T06:59:27;18.35;;;7.05;;
69748;SDS011;57019;52.354;6.584;2022-08-19T07:01:56;12.20;;;6.75;;
69748;SDS011;57019;52.354;6.584;2022-08-19T07:04:23;13.90;;;7.03;;
69748;SDS011;57019;52.354;6.584;2022-08-19T07:06:57;18.30;;;8.20;;
69748;SDS011;57019;52.354;6.584;2022-08-19T07:09:24;16.63;;;7.30;;
69748;SDS011;57019;52.354;6.584;2022-08-19T07:11:50;16.80;;;7.82;;
69748;SDS011;57019;52.354;6.584;2022-08-19T07:14:18;15.03;;;8.07;;
69748;SDS011;57019;52.354;6.584;2022-08-19T07:16:45;15.32;;;7.38;;
69748;SDS011;57019;52.354;6.584;2022-08-19T07:19:13;16.63;;;7.93;;
69748;SDS011;57019;52.354;6.584;2022-08-19T07:21:40;14.55;;;8.32;;
69748;SDS011;57019;52.354;6.584;2022-08-19T07:24:06;18.13;;;8.10;;
69748;SDS011;57019;52.354;6.584;2022-08-19T07:26:35;15.60;;;7.80;;
69748;SDS011;57019;52.354;6.584;2022-08-19T07:29:04;14.55;;;8.10;;
69748;SDS011;57019;52.354;6.584;2022-08-19T07:31:29;15.30;;;7.80;;
69748;SDS011;57019;52.354;6.584;2022-08-19T07:33:55;12.47;;;6.80;;
69748;SDS011;57019;52.354;6.584;2022-08-19T07:36:22;20.35;;;9.50;;
69748;SDS011;57019;52.354;6.584;2022-08-19T07:38:53;15.50;;;8.67;;
69748;SDS011;57019;52.354;6.584;2022-08-19T07:41:20;17.40;;;8.27;;
69748;SDS011;57019;52.354;6.584;2022-08-19T07:43:47;19.33;;;8.05;;
69748;SDS011;57019;52.354;6.584;2022-08-19T07:46:14;15.18;;;8.57;;
69748;SDS011;57019;52.354;6.584;2022-08-19T07:48:40;14.38;;;8.20;;
69748;SDS011;57019;52.354;6.584;2022-08-19T07:51:07;16.77;;;8.43;;
69748;SDS011;57019;52.354;6.584;2022-08-19T07:53:35;13.88;;;8.00;;
69748;SDS011;57019;52.354;6.584;2022-08-19T07:56:02;13.55;;;7.68;;
69748;SDS011;57019;52.354;6.584;2022-08-19T07:58:29;14.98;;;8.00;;
69748;SDS011;57019;52.354;6.584;2022-08-19T08:00:57;14.38;;;7.60;;
69748;SDS011;57019;52.354;6.584;2022-08-19T08:03:23;15.67;;;7.60;;
69748;SDS011;57019;52.354;6.584;2022-08-19T08:06:08;14.27;;;7.38;;
69748;SDS011;57019;52.354;6.584;2022-08-19T08:08:51;14.32;;;7.47;;
69748;SDS011;57019;52.354;6.584;2022-08-19T08:11:35;13.95;;;7.20;;
69748;SDS011;57019;52.354;6.584;2022-08-19T08:14:01;14.07;;;6.77;;
69748;SDS011;57019;52.354;6.584;2022-08-19T08:16:26;13.40;;;7.20;;
69748;SDS011;57019;52.354;6.584;2022-08-19T08:18:56;11.93;;;6.40;;
69748;SDS011;57019;52.354;6.584;2022-08-19T08:21:21;12.07;;;6.28;;
69748;SDS011;57019;52.354;6.584;2022-08-19T08:23:46;15.60;;;7.67;;
69748;SDS011;57019;52.354;6.584;2022-08-19T08:26:12;12.97;;;6.30;;
69748;SDS011;57019;52.354;6.584;2022-08-19T08:28:39;13.43;;;6.32;;
69748;SDS011;57019;52.354;6.584;2022-08-19T08:31:04;13.10;;;6.03;;
69748;SDS011;57019;52.354;6.584;2022-08-19T08:33:30;18.17;;;6.83;;
69748;SDS011;57019;52.354;6.584;2022-08-19T08:35:55;11.97;;;6.53;;
69748;SDS011;57019;52.354;6.584;2022-08-19T08:38:21;18.45;;;6.90;;
69748;SDS011;57019;52.354;6.584;2022-08-19T08:40:50;15.67;;;6.10;;
69748;SDS011;57019;52.354;6.584;2022-08-19T08:46:32;13.93;;;6.75;;
69748;SDS011;57019;52.354;6.584;2022-08-19T08:51:51;12.63;;;5.27;;
69748;SDS011;57019;52.354;6.584;2022-08-19T08:54:23;12.00;;;5.43;;
69748;SDS011;57019;52.354;6.584;2022-08-19T08:56:53;11.40;;;5.80;;
69748;SDS011;57019;52.354;6.584;2022-08-19T08:59:24;11.00;;;5.53;;
69748;SDS011;57019;52.354;6.584;2022-08-19T09:02:29;11.05;;;5.13;;
69748;SDS011;57019;52.354;6.584;2022-08-19T09:04:55;9.63;;;4.60;;
69748;SDS011;57019;52.354;6.584;2022-08-19T09:09:52;11.17;;;5.23;;
69748;SDS011;57019;52.354;6.584;2022-08-19T09:12:31;11.48;;;5.53;;
69748;SDS011;57019;52.354;6.584;2022-08-19T09:15:20;9.82;;;5.13;;
69748;SDS011;57019;52.354;6.584;2022-08-19T09:17:52;9.73;;;4.88;;
69748;SDS011;57019;52.354;6.584;2022-08-19T09:20:22;9.67;;;4.27;;
69748;SDS011;57019;52.354;6.584;2022-08-19T09:22:49;12.73;;;5.30;;
69748;SDS011;57019;52.354;6.584;2022-08-19T09:25:20;10.57;;;4.53;;
69748;SDS011;57019;52.354;6.584;2022-08-19T09:27:48;10.10;;;4.15;;
69748;SDS011;57019;52.354;6.584;2022-08-19T09:30:16;10.57;;;4.47;;
69748;SDS011;57019;52.354;6.584;2022-08-19T09:32:44;11.47;;;5.03;;
69748;SDS011;57019;52.354;6.584;2022-08-19T09:35:10;12.25;;;5.10;;
69748;SDS011;57019;52.354;6.584;2022-08-19T09:37:37;8.95;;;4.50;;
69748;SDS011;57019;52.354;6.584;2022-08-19T09:40:03;12.63;;;4.55;;
69748;SDS011;57019;52.354;6.584;2022-08-19T09:42:29;9.50;;;5.07;;
69748;SDS011;57019;52.354;6.584;2022-08-19T09:44:55;14.87;;;5.43;;
69748;SDS011;57019;52.354;6.584;2022-08-19T09:47:20;13.43;;;5.20;;
69748;SDS011;57019;52.354;6.584;2022-08-19T09:49:45;11.10;;;5.50;;
69748;SDS011;57019;52.354;6.584;2022-08-19T09:52:12;10.18;;;5.15;;
69748;SDS011;57019;52.354;6.584;2022-08-19T09:54:38;11.93;;;5.60;;
69748;SDS011;57019;52.354;6.584;2022-08-19T09:57:03;10.95;;;5.70;;
69748;SDS011;57019;52.354;6.584;2022-08-19T09:59:29;12.23;;;5.27;;
69748;SDS011;57019;52.354;6.584;2022-08-19T10:01:54;13.17;;;5.73;;
69748;SDS011;57019;52.354;6.584;2022-08-19T10:04:20;10.73;;;5.75;;
69748;SDS011;57019;52.354;6.584;2022-08-19T10:06:46;10.93;;;5.50;;
69748;SDS011;57019;52.354;6.584;2022-08-19T10:09:13;10.48;;;5.32;;
69748;SDS011;57019;52.354;6.584;2022-08-19T10:11:41;10.13;;;5.30;;
69748;SDS011;57019;52.354;6.584;2022-08-19T10:14:07;11.03;;;5.43;;
69748;SDS011;57019;52.354;6.584;2022-08-19T10:16:33;10.90;;;5.38;;
69748;SDS011;57019;52.354;6.584;2022-08-19T10:19:00;10.63;;;5.43;;
69748;SDS011;57019;52.354;6.584;2022-08-19T10:21:27;11.43;;;5.50;;
69748;SDS011;57019;52.354;6.584;2022-08-19T10:23:55;11.93;;;5.78;;
69748;SDS011;57019;52.354;6.584;2022-08-19T10:26:27;12.10;;;5.43;;
69748;SDS011;57019;52.354;6.584;2022-08-19T10:28:54;10.85;;;5.53;;
69748;SDS011;57019;52.354;6.584;2022-08-19T10:31:22;9.32;;;5.22;;
69748;SDS011;57019;52.354;6.584;2022-08-19T10:33:51;9.43;;;5.10;;
69748;SDS011;57019;52.354;6.584;2022-08-19T10:36:24;10.98;;;5.22;;
69748;SDS011;57019;52.354;6.584;2022-08-19T10:38:52;12.60;;;5.53;;
69748;SDS011;57019;52.354;6.584;2022-08-19T10:41:25;11.40;;;5.00;;
69748;SDS011;57019;52.354;6.584;2022-08-19T10:43:54;9.65;;;5.00;;
69748;SDS011;57019;52.354;6.584;2022-08-19T10:46:23;11.02;;;5.32;;
69748;SDS011;57019;52.354;6.584;2022-08-19T10:48:50;9.98;;;5.57;;
69748;SDS011;57019;52.354;6.584;2022-08-19T10:51:16;14.63;;;5.70;;
69748;SDS011;57019;52.354;6.584;2022-08-19T10:54:01;13.73;;;6.53;;
69748;SDS011;57019;52.354;6.584;2022-08-19T10:56:27;12.05;;;5.93;;
69748;SDS011;57019;52.354;6.584;2022-08-19T10:59:12;11.20;;;5.97;;
69748;SDS011;57019;52.354;6.584;2022-08-19T11:01:39;10.70;;;6.18;;
69748;SDS011;57019;52.354;6.584;2022-08-19T11:04:05;11.43;;;6.00;;
69748;SDS011;57019;52.354;6.584;2022-08-19T11:06:34;11.65;;;6.80;;
69748;SDS011;57019;52.354;6.584;2022-08-19T11:09:00;12.95;;;7.50;;
69748;SDS011;57019;52.354;6.584;2022-08-19T11:11:26;11.07;;;5.90;;
69748;SDS011;57019;52.354;6.584;2022-08-19T11:13:53;12.55;;;6.35;;
69748;SDS011;57019;52.354;6.584;2022-08-19T11:16:20;12.43;;;6.30;;
69748;SDS011;57019;52.354;6.584;2022-08-19T11:18:49;14.27;;;6.47;;
69748;SDS011;57019;52.354;6.584;2022-08-19T11:21:20;9.87;;;5.97;;
69748;SDS011;57019;52.354;6.584;2022-08-19T11:23:46;10.95;;;6.30;;
69748;SDS011;57019;52.354;6.584;2022-08-19T11:26:13;11.52;;;6.20;;
69748;SDS011;57019;52.354;6.584;2022-08-19T11:28:39;12.75;;;6.00;;
69748;SDS011;57019;52.354;6.584;2022-08-19T11:31:12;10.23;;;5.70;;
69748;SDS011;57019;52.354;6.584;2022-08-19T11:33:42;11.82;;;6.22;;
69748;SDS011;57019;52.354;6.584;2022-08-19T11:36:07;11.60;;;6.60;;
69748;SDS011;57019;52.354;6.584;2022-08-19T11:38:33;9.67;;;5.90;;
69748;SDS011;57019;52.354;6.584;2022-08-19T11:41:01;10.23;;;6.22;;
69748;SDS011;57019;52.354;6.584;2022-08-19T11:43:29;9.52;;;5.85;;
69748;SDS011;57019;52.354;6.584;2022-08-19T11:45:55;11.60;;;6.32;;
69748;SDS011;57019;52.354;6.584;2022-08-19T11:48:21;11.20;;;6.10;;
69748;SDS011;57019;52.354;6.584;2022-08-19T11:50:48;10.88;;;5.75;;
69748;SDS011;57019;52.354;6.584;2022-08-19T11:53:15;10.43;;;5.65;;
69748;SDS011;57019;52.354;6.584;2022-08-19T11:55:43;9.55;;;5.47;;
69748;SDS011;57019;52.354;6.584;2022-08-19T11:58:09;11.75;;;5.88;;
69748;SDS011;57019;52.354;6.584;2022-08-19T12:00:35;13.60;;;6.90;;
69748;SDS011;57019;52.354;6.584;2022-08-19T12:03:01;13.70;;;6.60;;
69748;SDS011;57019;52.354;6.584;2022-08-19T12:05:27;11.85;;;6.22;;
69748;SDS011;57019;52.354;6.584;2022-08-19T12:07:53;13.47;;;6.73;;
69748;SDS011;57019;52.354;6.584;2022-08-19T12:10:19;12.38;;;6.43;;
69748;SDS011;57019;52.354;6.584;2022-08-19T12:12:45;11.63;;;6.47;;
69748;SDS011;57019;52.354;6.584;2022-08-19T12:15:10;13.87;;;6.53;;
69748;SDS011;57019;52.354;6.584;2022-08-19T12:17:37;10.82;;;5.45;;
69748;SDS011;57019;52.354;6.584;2022-08-19T12:20:03;11.95;;;6.18;;
69748;SDS011;57019;52.354;6.584;2022-08-19T12:22:30;10.87;;;6.33;;
69748;SDS011;57019;52.354;6.584;2022-08-19T12:24:55;11.30;;;6.00;;
69748;SDS011;57019;52.354;6.584;2022-08-19T12:27:21;12.03;;;6.37;;
69748;SDS011;57019;52.354;6.584;2022-08-19T12:29:46;11.53;;;5.90;;
69748;SDS011;57019;52.354;6.584;2022-08-19T12:32:12;10.68;;;6.03;;
69748;SDS011;57019;52.354;6.584;2022-08-19T12:34:38;13.07;;;6.20;;
69748;SDS011;57019;52.354;6.584;2022-08-19T12:37:04;10.32;;;5.72;;
69748;SDS011;57019;52.354;6.584;2022-08-19T12:39:38;10.75;;;5.82;;
69748;SDS011;57019;52.354;6.584;2022-08-19T12:42:06;10.20;;;5.77;;
69748;SDS011;57019;52.354;6.584;2022-08-19T12:44:33;10.65;;;5.70;;
69748;SDS011;57019;52.354;6.584;2022-08-19T12:46:58;11.13;;;5.60;;
69748;SDS011;57019;52.354;6.584;2022-08-19T12:49:24;11.20;;;5.37;;
69748;SDS011;57019;52.354;6.584;2022-08-19T12:51:53;10.80;;;5.78;;
69748;SDS011;57019;52.354;6.584;2022-08-19T12:54:18;9.33;;;5.63;;
69748;SDS011;57019;52.354;6.584;2022-08-19T12:56:43;10.27;;;5.60;;
69748;SDS011;57019;52.354;6.584;2022-08-19T12:59:09;10.57;;;5.40;;
69748;SDS011;57019;52.354;6.584;2022-08-19T13:01:36;9.90;;;5.10;;
69748;SDS011;57019;52.354;6.584;2022-08-19T13:04:02;10.40;;;5.40;;
69748;SDS011;57019;52.354;6.584;2022-08-19T13:06:27;9.60;;;5.13;;
69748;SDS011;57019;52.354;6.584;2022-08-19T13:08:53;11.23;;;5.30;;
69748;SDS011;57019;52.354;6.584;2022-08-19T13:11:20;11.85;;;5.53;;
69748;SDS011;57019;52.354;6.584;2022-08-19T13:13:49;9.73;;;5.00;;
69748;SDS011;57019;52.354;6.584;2022-08-19T13:16:15;12.38;;;5.47;;
69748;SDS011;57019;52.354;6.584;2022-08-19T13:18:42;11.90;;;5.30;;
69748;SDS011;57019;52.354;6.584;2022-08-19T13:21:11;11.18;;;5.55;;
69748;SDS011;57019;52.354;6.584;2022-08-19T13:23:37;10.73;;;5.70;;
69748;SDS011;57019;52.354;6.584;2022-08-19T13:26:04;13.30;;;5.57;;
69748;SDS011;57019;52.354;6.584;2022-08-19T13:28:31;12.13;;;5.25;;
69748;SDS011;57019;52.354;6.584;2022-08-19T13:31:17;9.93;;;5.57;;
69748;SDS011;57019;52.354;6.584;2022-08-19T13:34:02;9.00;;;4.80;;
69748;SDS011;57019;52.354;6.584;2022-08-19T13:36:28;11.07;;;5.40;;
69748;SDS011;57019;52.354;6.584;2022-08-19T13:38:54;10.80;;;5.30;;
69748;SDS011;57019;52.354;6.584;2022-08-19T13:41:19;10.50;;;5.40;;
69748;SDS011;57019;52.354;6.584;2022-08-19T13:43:44;10.47;;;5.70;;
69748;SDS011;57019;52.354;6.584;2022-08-19T13:46:10;10.20;;;5.00;;
69748;SDS011;57019;52.354;6.584;2022-08-19T13:48:46;12.02;;;5.68;;
69748;SDS011;57019;52.354;6.584;2022-08-19T13:51:13;11.07;;;5.22;;
69748;SDS011;57019;52.354;6.584;2022-08-19T13:53:41;8.90;;;4.65;;
69748;SDS011;57019;52.354;6.584;2022-08-19T13:56:09;11.90;;;5.23;;
69748;SDS011;57019;52.354;6.584;2022-08-19T13:58:36;9.18;;;4.88;;
69748;SDS011;57019;52.354;6.584;2022-08-19T14:01:02;8.90;;;4.85;;
69748;SDS011;57019;52.354;6.584;2022-08-19T14:03:28;9.25;;;4.68;;
69748;SDS011;57019;52.354;6.584;2022-08-19T14:05:55;9.68;;;4.78;;
69748;SDS011;57019;52.354;6.584;2022-08-19T14:08:20;9.30;;;4.83;;
69748;SDS011;57019;52.354;6.584;2022-08-19T14:10:46;9.30;;;4.60;;
69748;SDS011;57019;52.354;6.584;2022-08-19T14:13:16;8.52;;;4.55;;
69748;SDS011;57019;52.354;6.584;2022-08-19T14:15:44;8.93;;;4.37;;
69748;SDS011;57019;52.354;6.584;2022-08-19T14:18:10;9.75;;;4.65;;
69748;SDS011;57019;52.354;6.584;2022-08-19T14:20:36;8.20;;;4.32;;
69748;SDS011;57019;52.354;6.584;2022-08-19T14:23:01;9.70;;;4.40;;
69748;SDS011;57019;52.354;6.584;2022-08-19T14:25:29;8.90;;;4.57;;
69748;SDS011;57019;52.354;6.584;2022-08-19T14:27:55;9.40;;;4.68;;
69748;SDS011;57019;52.354;6.584;2022-08-19T14:30:23;8.67;;;4.77;;
69748;SDS011;57019;52.354;6.584;2022-08-19T14:32:53;9.80;;;5.00;;
69748;SDS011;57019;52.354;6.584;2022-08-19T14:35:20;9.20;;;4.53;;
69748;SDS011;57019;52.354;6.584;2022-08-19T14:37:47;8.88;;;4.55;;
69748;SDS011;57019;52.354;6.584;2022-08-19T14:40:17;9.23;;;4.68;;
69748;SDS011;57019;52.354;6.584;2022-08-19T14:42:50;9.47;;;4.33;;
69748;SDS011;57019;52.354;6.584;2022-08-19T14:45:26;9.75;;;5.07;;
69748;SDS011;57019;52.354;6.584;2022-08-19T14:47:53;10.38;;;4.63;;
69748;SDS011;57019;52.354;6.584;2022-08-19T14:50:18;9.03;;;4.43;;
69748;SDS011;57019;52.354;6.584;2022-08-19T14:52:47;9.88;;;4.50;;
69748;SDS011;57019;52.354;6.584;2022-08-19T14:55:15;10.68;;;5.10;;